createdAt,value
2017-05-09T00:00:25.019Z,0
2017-05-09T00:01:18.744Z,0
2017-05-09T00:02:18.484Z,0
2017-05-09T00:03:13.606Z,0
2017-05-09T00:04:13.305Z,0
2017-05-09T00:05:07.409Z,0
2017-05-09T00:06:07.031Z,0
2017-05-09T00:07:01.778Z,0
2017-05-09T00:08:01.316Z,0
2017-05-09T00:09:01.303Z,0
2017-05-09T00:09:55.732Z,0
2017-05-09T00:10:49.792Z,0
2017-05-09T00:11:38.662Z,0
2017-05-09T00:12:44.028Z,0
2017-05-09T00:13:37.880Z,0
2017-05-09T00:14:38.022Z,0
2017-05-09T00:15:32.082Z,0
2017-05-09T00:16:26.512Z,0
2017-05-09T00:17:20.009Z,0
2017-05-09T00:18:20.010Z,0
2017-05-09T00:19:13.885Z,0
2017-05-09T00:20:14.909Z,0
2017-05-09T00:21:14.433Z,0
2017-05-09T00:22:09.331Z,0
2017-05-09T00:23:08.890Z,0
2017-05-09T00:23:57.796Z,0
2017-05-09T00:24:57.347Z,0
2017-05-09T00:25:51.885Z,0
2017-05-09T00:26:45.253Z,0
2017-05-09T00:27:41.990Z,0
2017-05-09T00:28:34.714Z,0
2017-05-09T00:29:29.237Z,0
2017-05-09T00:30:17.855Z,0
2017-05-09T00:31:05.254Z,0
2017-05-09T00:32:00.256Z,0
2017-05-09T00:33:05.778Z,0
2017-05-09T00:33:59.709Z,0
2017-05-09T00:34:59.662Z,0
2017-05-09T00:35:48.651Z,0
2017-05-09T00:36:48.200Z,0
2017-05-09T00:37:42.083Z,0
2017-05-09T00:38:37.073Z,0
2017-05-09T00:39:36.576Z,0
2017-05-09T00:40:31.973Z,0
2017-05-09T00:41:31.638Z,0
2017-05-09T00:42:32.031Z,0
2017-05-09T00:43:26.500Z,0
2017-05-09T00:44:21.069Z,0
2017-05-09T00:45:15.577Z,0
2017-05-09T00:46:15.059Z,0
2017-05-09T00:47:10.053Z,0
2017-05-09T00:48:09.522Z,0
2017-05-09T00:49:09.507Z,0
2017-05-09T00:50:04.455Z,0
2017-05-09T00:51:09.968Z,0
2017-05-09T00:52:09.922Z,0
2017-05-09T00:53:09.857Z,0
2017-05-09T00:54:04.821Z,0
2017-05-09T00:54:59.381Z,0
2017-05-09T00:55:54.266Z,0
2017-05-09T00:56:53.317Z,0
2017-05-09T00:57:48.296Z,0
2017-05-09T00:58:47.840Z,0
2017-05-09T00:59:47.769Z,0
2017-05-09T01:00:42.683Z,0
2017-05-09T01:01:42.415Z,0
2017-05-09T01:02:36.184Z,0
2017-05-09T01:03:36.199Z,0
2017-05-09T01:04:30.088Z,0
2017-05-09T01:05:30.128Z,0
2017-05-09T01:06:25.020Z,0
2017-05-09T01:07:24.497Z,0
2017-05-09T01:08:18.483Z,0
2017-05-09T01:09:18.447Z,0
2017-05-09T01:10:13.391Z,0
2017-05-09T01:11:07.915Z,0
2017-05-09T01:12:07.381Z,0
2017-05-09T01:13:02.501Z,0
2017-05-09T01:13:56.904Z,0
2017-05-09T01:14:56.488Z,0
2017-05-09T01:15:50.367Z,0
2017-05-09T01:16:45.307Z,0
2017-05-09T01:17:44.940Z,0
2017-05-09T01:18:38.946Z,0
2017-05-09T01:19:39.719Z,0
2017-05-09T01:20:39.284Z,0
2017-05-09T01:21:45.158Z,0
2017-05-09T01:22:40.153Z,0
2017-05-09T01:23:34.669Z,0
2017-05-09T01:24:29.223Z,0
2017-05-09T01:25:28.726Z,0
2017-05-09T01:26:22.691Z,0
2017-05-09T01:27:22.608Z,0
2017-05-09T01:28:22.574Z,0
2017-05-09T01:29:23.486Z,0
2017-05-09T01:30:24.049Z,0
2017-05-09T01:31:18.558Z,0
2017-05-09T01:32:13.093Z,0
2017-05-09T01:33:12.630Z,0
2017-05-09T01:34:12.477Z,0
2017-05-09T01:35:06.890Z,0
2017-05-09T01:36:00.481Z,0
2017-05-09T01:37:00.433Z,0
2017-05-09T01:37:54.381Z,0
2017-05-09T01:38:55.238Z,0
2017-05-09T01:40:00.839Z,0
2017-05-09T01:40:54.708Z,0
2017-05-09T01:41:54.696Z,0
2017-05-09T01:42:54.654Z,0
2017-05-09T01:43:49.610Z,0
2017-05-09T01:44:44.250Z,0
2017-05-09T01:45:38.710Z,0
2017-05-09T01:46:33.189Z,0
2017-05-09T01:47:32.711Z,0
2017-05-09T01:48:27.694Z,0
2017-05-09T01:49:27.175Z,0
2017-05-09T01:50:21.103Z,0
2017-05-09T01:51:15.089Z,0
2017-05-09T01:52:09.965Z,0
2017-05-09T01:53:04.750Z,0
2017-05-09T01:53:59.078Z,0
2017-05-09T01:54:58.633Z,0
2017-05-09T01:55:53.063Z,0
2017-05-09T01:56:53.478Z,0
2017-05-09T01:57:46.977Z,0
2017-05-09T01:58:46.957Z,0
2017-05-09T01:59:40.890Z,0
2017-05-09T02:00:42.092Z,0
2017-05-09T02:01:41.422Z,0
2017-05-09T02:02:36.317Z,0
2017-05-09T02:03:35.767Z,0
2017-05-09T02:04:24.787Z,0
2017-05-09T02:05:24.325Z,0
2017-05-09T02:06:24.208Z,0
2017-05-09T02:07:19.234Z,0
2017-05-09T02:08:18.706Z,0
2017-05-09T02:09:12.708Z,0
2017-05-09T02:10:08.140Z,0
2017-05-09T02:11:07.145Z,0
2017-05-09T02:12:07.101Z,0
2017-05-09T02:13:07.086Z,0
2017-05-09T02:14:02.027Z,0
2017-05-09T02:15:01.452Z,0
2017-05-09T02:15:55.444Z,0
2017-05-09T02:16:55.394Z,0
2017-05-09T02:17:49.392Z,0
2017-05-09T02:18:50.311Z,0
2017-05-09T02:19:43.888Z,0
2017-05-09T02:20:38.770Z,0
2017-05-09T02:21:44.290Z,0
2017-05-09T02:22:38.237Z,0
2017-05-09T02:23:39.225Z,0
2017-05-09T02:24:33.692Z,0
2017-05-09T02:25:28.252Z,0
2017-05-09T02:26:22.767Z,0
2017-05-09T02:27:22.316Z,0
2017-05-09T02:28:16.236Z,0
2017-05-09T02:29:16.165Z,0
2017-05-09T02:30:11.159Z,0
2017-05-09T02:31:10.642Z,0
2017-05-09T02:32:10.587Z,0
2017-05-09T02:33:05.570Z,0
2017-05-09T02:34:05.075Z,0
2017-05-09T02:35:00.007Z,0
2017-05-09T02:35:59.515Z,0
2017-05-09T02:36:59.478Z,0
2017-05-09T02:37:53.497Z,0
2017-05-09T02:38:53.390Z,0
2017-05-09T02:39:48.413Z,0
2017-05-09T02:40:47.886Z,0
2017-05-09T02:41:42.807Z,0
2017-05-09T02:42:42.339Z,0
2017-05-09T02:43:42.256Z,0
2017-05-09T02:44:37.292Z,0
2017-05-09T02:45:42.713Z,0
2017-05-09T02:46:36.682Z,0
2017-05-09T02:47:36.653Z,0
2017-05-09T02:48:30.597Z,0
2017-05-09T02:49:30.595Z,0
2017-05-09T02:50:18.518Z,0
2017-05-09T02:51:01.414Z,0
2017-05-09T02:51:49.979Z,0
2017-05-09T02:52:44.484Z,0
2017-05-09T02:53:37.992Z,0
2017-05-09T02:54:20.982Z,0
2017-05-09T02:55:14.513Z,0
2017-05-09T02:55:57.502Z,0
2017-05-09T02:56:45.046Z,0
2017-05-09T02:57:34.479Z,0
2017-05-09T02:58:21.476Z,0
2017-05-09T02:59:09.449Z,0
2017-05-09T02:59:57.393Z,0
2017-05-09T03:00:46.356Z,0
2017-05-09T03:01:34.572Z,0
2017-05-09T03:02:21.832Z,0
2017-05-09T03:03:09.791Z,4
2017-05-09T03:03:58.729Z,4
2017-05-09T03:04:46.257Z,4
2017-05-09T03:05:29.234Z,4
2017-05-09T03:06:16.762Z,0
2017-05-09T03:06:59.756Z,4
2017-05-09T03:07:47.217Z,4
2017-05-09T03:08:35.185Z,4
2017-05-09T03:09:18.190Z,4
2017-05-09T03:10:05.682Z,4
2017-05-09T03:10:53.885Z,4
2017-05-09T03:11:42.599Z,8
2017-05-09T03:12:30.185Z,4
2017-05-09T03:13:18.110Z,8
2017-05-09T03:14:07.141Z,8
2017-05-09T03:15:00.563Z,8
2017-05-09T03:15:54.980Z,8
2017-05-09T03:16:43.516Z,12
2017-05-09T03:17:49.059Z,16
2017-05-09T03:18:48.914Z,16
2017-05-09T03:19:48.887Z,20
2017-05-09T03:20:37.819Z,24
2017-05-09T03:21:37.405Z,24
2017-05-09T03:22:37.378Z,28
2017-05-09T03:23:26.264Z,32
2017-05-09T03:24:25.816Z,36
2017-05-09T03:25:13.786Z,40
2017-05-09T03:26:02.656Z,48
2017-05-09T03:26:50.193Z,48
2017-05-09T03:27:38.188Z,56
2017-05-09T03:28:26.149Z,60
2017-05-09T03:29:09.122Z,68
2017-05-09T03:29:56.660Z,76
2017-05-09T03:30:39.583Z,80
2017-05-09T03:31:27.096Z,92
2017-05-09T03:32:16.094Z,96
2017-05-09T03:33:03.596Z,104
2017-05-09T03:33:57.573Z,120
2017-05-09T03:34:40.483Z,128
2017-05-09T03:35:34.043Z,144
2017-05-09T03:36:21.964Z,156
2017-05-09T03:37:16.981Z,168
2017-05-09T03:38:10.454Z,184
2017-05-09T03:38:59.394Z,200
2017-05-09T03:39:46.956Z,216
2017-05-09T03:40:34.914Z,228
2017-05-09T03:41:36.097Z,256
2017-05-09T03:42:29.369Z,276
2017-05-09T03:43:24.323Z,300
2017-05-09T03:44:11.913Z,316
2017-05-09T03:44:54.780Z,344
2017-05-09T03:45:48.312Z,368
2017-05-09T03:46:42.328Z,396
2017-05-09T03:47:36.286Z,428
2017-05-09T03:48:24.229Z,456
2017-05-09T03:49:12.202Z,488
2017-05-09T03:50:00.123Z,524
2017-05-09T03:50:48.246Z,556
2017-05-09T03:51:42.019Z,592
2017-05-09T03:52:36.013Z,636
2017-05-09T03:53:24.038Z,672
2017-05-09T03:54:13.001Z,708
2017-05-09T03:55:00.435Z,740
2017-05-09T03:55:43.696Z,776
2017-05-09T03:56:42.957Z,824
2017-05-09T03:57:42.879Z,876
2017-05-09T03:58:42.788Z,936
2017-05-09T03:59:30.779Z,984
2017-05-09T04:00:19.739Z,1036
2017-05-09T04:01:07.278Z,1080
2017-05-09T04:01:55.308Z,1128
2017-05-09T04:02:43.212Z,1176
2017-05-09T04:03:26.158Z,1228
2017-05-09T04:04:13.684Z,1280
2017-05-09T04:05:01.618Z,1344
2017-05-09T04:05:49.592Z,1388
2017-05-09T04:06:37.562Z,1436
2017-05-09T04:07:37.500Z,1500
2017-05-09T04:08:31.470Z,1560
2017-05-09T04:09:31.410Z,1632
2017-05-09T04:10:25.347Z,1692
2017-05-09T04:11:25.288Z,1760
2017-05-09T04:12:25.262Z,1824
2017-05-09T04:13:20.163Z,1892
2017-05-09T04:14:08.706Z,1948
2017-05-09T04:14:57.238Z,2012
2017-05-09T04:15:56.781Z,2068
2017-05-09T04:16:50.666Z,2120
2017-05-09T04:17:45.662Z,2176
2017-05-09T04:18:46.204Z,2220
2017-05-09T04:19:45.685Z,2272
2017-05-09T04:20:45.631Z,2324
2017-05-09T04:21:51.567Z,2404
2017-05-09T04:22:46.510Z,2480
2017-05-09T04:23:46.081Z,2564
2017-05-09T04:24:40.030Z,2636
2017-05-09T04:25:41.061Z,2736
2017-05-09T04:26:28.472Z,2888
2017-05-09T04:27:22.401Z,3124
2017-05-09T04:28:16.423Z,3216
2017-05-09T04:29:10.291Z,3216
2017-05-09T04:29:58.330Z,3268
2017-05-09T04:30:46.201Z,3396
2017-05-09T04:31:40.252Z,3488
2017-05-09T04:32:34.193Z,3484
2017-05-09T04:33:29.129Z,3492
2017-05-09T04:34:28.696Z,3564
2017-05-09T04:35:23.636Z,3616
2017-05-09T04:36:23.105Z,3660
2017-05-09T04:37:23.116Z,3772
2017-05-09T04:38:18.013Z,3932
2017-05-09T04:39:12.621Z,4220
2017-05-09T04:40:06.103Z,4420
2017-05-09T04:40:55.029Z,4572
2017-05-09T04:41:48.680Z,4648
2017-05-09T04:42:36.501Z,4676
2017-05-09T04:43:24.501Z,4768
2017-05-09T04:44:12.438Z,4872
2017-05-09T04:45:06.392Z,4996
2017-05-09T04:45:55.380Z,5076
2017-05-09T04:46:54.882Z,5136
2017-05-09T04:47:48.793Z,4868
2017-05-09T04:48:43.756Z,5236
2017-05-09T04:49:43.232Z,5200
2017-05-09T04:50:43.224Z,5228
2017-05-09T04:51:32.219Z,5336
2017-05-09T04:52:26.693Z,5348
2017-05-09T04:53:26.187Z,5512
2017-05-09T04:54:27.178Z,5652
2017-05-09T04:55:20.678Z,5584
2017-05-09T04:56:09.702Z,5616
2017-05-09T04:57:04.165Z,5676
2017-05-09T04:57:57.772Z,5768
2017-05-09T04:58:40.673Z,5828
2017-05-09T04:59:29.200Z,5688
2017-05-09T05:00:17.693Z,6208
2017-05-09T05:01:17.250Z,6372
2017-05-09T05:02:18.150Z,6528
2017-05-09T05:03:06.419Z,6540
2017-05-09T05:04:00.678Z,6756
2017-05-09T05:04:54.197Z,7020
2017-05-09T05:05:48.147Z,7104
2017-05-09T05:06:48.081Z,7068
2017-05-09T05:07:42.106Z,6856
2017-05-09T05:08:36.058Z,7316
2017-05-09T05:09:19.009Z,7176
2017-05-09T05:10:13.049Z,7300
2017-05-09T05:11:12.456Z,6980
2017-05-09T05:12:07.487Z,7816
2017-05-09T05:12:55.991Z,7876
2017-05-09T05:13:55.504Z,8292
2017-05-09T05:14:49.888Z,8540
2017-05-09T05:15:37.827Z,8964
2017-05-09T05:16:26.353Z,9540
2017-05-09T05:17:20.892Z,9984
2017-05-09T05:18:20.373Z,9496
2017-05-09T05:19:14.377Z,9308
2017-05-09T05:20:08.324Z,10684
2017-05-09T05:21:02.336Z,9244
2017-05-09T05:21:57.547Z,9736
2017-05-09T05:23:02.774Z,12404
2017-05-09T05:23:51.776Z,13048
2017-05-09T05:24:51.249Z,13792
2017-05-09T05:25:46.550Z,13268
2017-05-09T05:26:33.746Z,12500
2017-05-09T05:27:16.745Z,11196
2017-05-09T05:28:05.286Z,10320
2017-05-09T05:28:53.774Z,10168
2017-05-09T05:29:53.439Z,9828
2017-05-09T05:30:54.279Z,10092
2017-05-09T05:31:48.811Z,10500
2017-05-09T05:32:42.347Z,9552
2017-05-09T05:33:31.396Z,9296
2017-05-09T05:34:19.802Z,9556
2017-05-09T05:35:13.902Z,9880
2017-05-09T05:36:02.413Z,10216
2017-05-09T05:36:49.797Z,10264
2017-05-09T05:37:44.789Z,10832
2017-05-09T05:38:44.319Z,10988
2017-05-09T05:39:39.284Z,11440
2017-05-09T05:40:39.065Z,11540
2017-05-09T05:41:27.734Z,11436
2017-05-09T05:42:27.364Z,11772
2017-05-09T05:43:10.272Z,12056
2017-05-09T05:43:58.777Z,12172
2017-05-09T05:44:47.681Z,11632
2017-05-09T05:45:36.362Z,11548
2017-05-09T05:46:35.813Z,12908
2017-05-09T05:47:35.329Z,16864
2017-05-09T05:48:35.313Z,17920
2017-05-09T05:49:29.735Z,17952
2017-05-09T05:50:18.474Z,18496
2017-05-09T05:51:12.915Z,19456
2017-05-09T05:52:01.607Z,19904
2017-05-09T05:53:00.809Z,19424
2017-05-09T05:53:48.942Z,18240
2017-05-09T05:54:48.752Z,16928
2017-05-09T05:55:44.136Z,17088
2017-05-09T05:56:49.286Z,18208
2017-05-09T05:57:43.572Z,20000
2017-05-09T05:58:37.500Z,21472
2017-05-09T05:59:32.158Z,21888
2017-05-09T06:00:25.978Z,22208
2017-05-09T06:01:14.775Z,21792
2017-05-09T06:02:09.288Z,22016
2017-05-09T06:02:57.795Z,22336
2017-05-09T06:03:50.745Z,22464
2017-05-09T06:04:39.976Z,23072
2017-05-09T06:05:39.190Z,21056
2017-05-09T06:06:33.591Z,22304
2017-05-09T06:07:33.130Z,22272
2017-05-09T06:08:27.680Z,22624
2017-05-09T06:09:15.007Z,21568
2017-05-09T06:09:58.065Z,20032
2017-05-09T06:10:51.692Z,22336
2017-05-09T06:11:46.501Z,27168
2017-05-09T06:12:40.312Z,26624
2017-05-09T06:13:34.003Z,25504
2017-05-09T06:14:27.985Z,25312
2017-05-09T06:15:23.155Z,27296
2017-05-09T06:16:17.802Z,29088
2017-05-09T06:17:12.348Z,28832
2017-05-09T06:18:06.485Z,27616
2017-05-09T06:19:01.485Z,25088
2017-05-09T06:19:54.593Z,27136
2017-05-09T06:20:49.053Z,28736
2017-05-09T06:21:42.618Z,30112
2017-05-09T06:22:30.530Z,32064
2017-05-09T06:23:24.871Z,32224
2017-05-09T06:24:13.791Z,31840
2017-05-09T06:25:01.132Z,30176
2017-05-09T06:25:55.215Z,29440
2017-05-09T06:26:44.164Z,29120
2017-05-09T06:27:38.790Z,31136
2017-05-09T06:28:32.249Z,34080
2017-05-09T06:29:21.189Z,35872
2017-05-09T06:30:09.987Z,35392
2017-05-09T06:31:03.422Z,33600
2017-05-09T06:31:57.219Z,27392
2017-05-09T06:32:51.357Z,30112
2017-05-09T06:33:40.450Z,32224
2017-05-09T06:34:33.691Z,32704
2017-05-09T06:35:27.902Z,32192
2017-05-09T06:36:21.805Z,32864
2017-05-09T06:37:15.872Z,36576
2017-05-09T06:38:10.791Z,35744
2017-05-09T06:39:04.362Z,34880
2017-05-09T06:39:58.818Z,33920
2017-05-09T06:40:52.821Z,32832
2017-05-09T06:41:47.884Z,34112
2017-05-09T06:42:40.910Z,33280
2017-05-09T06:43:30.051Z,33216
2017-05-09T06:44:29.416Z,33504
2017-05-09T06:45:23.904Z,33248
2017-05-09T06:46:17.808Z,32992
2017-05-09T06:47:05.744Z,33376
2017-05-09T06:47:53.782Z,33568
2017-05-09T06:48:47.694Z,34720
2017-05-09T06:49:35.637Z,34208
2017-05-09T06:50:29.685Z,34048
2017-05-09T06:51:18.194Z,33888
2017-05-09T06:52:18.075Z,35072
2017-05-09T06:53:06.666Z,36416
2017-05-09T06:54:00.593Z,34688
2017-05-09T06:54:55.577Z,37184
2017-05-09T06:55:49.291Z,40608
2017-05-09T06:56:42.801Z,41024
2017-05-09T06:57:37.256Z,42336
2017-05-09T06:58:30.625Z,46336
2017-05-09T06:59:19.868Z,47616
2017-05-09T07:00:14.544Z,49184
2017-05-09T07:01:07.820Z,49312
2017-05-09T07:01:55.830Z,50464
2017-05-09T07:02:44.724Z,50528
2017-05-09T07:03:38.555Z,51072
2017-05-09T07:04:32.565Z,50816
2017-05-09T07:05:26.541Z,45984
2017-05-09T07:06:21.554Z,50752
2017-05-09T07:07:15.040Z,50144
2017-05-09T07:08:04.095Z,48960
2017-05-09T07:08:52.558Z,46816
2017-05-09T07:09:40.101Z,45824
2017-05-09T07:10:29.002Z,44992
2017-05-09T07:11:23.590Z,44608
2017-05-09T07:12:23.201Z,48224
2017-05-09T07:13:17.115Z,49568
2017-05-09T07:14:17.078Z,56480
2017-05-09T07:15:11.066Z,54048
2017-05-09T07:16:04.943Z,49408
2017-05-09T07:16:58.588Z,47840
2017-05-09T07:17:47.522Z,46080
2017-05-09T07:18:41.095Z,46368
2017-05-09T07:19:42.071Z,48320
2017-05-09T07:20:35.602Z,49824
2017-05-09T07:21:35.745Z,49632
2017-05-09T07:22:30.091Z,49536
2017-05-09T07:23:23.557Z,50784
2017-05-09T07:24:12.487Z,50240
2017-05-09T07:25:07.285Z,51616
2017-05-09T07:26:01.578Z,53792
2017-05-09T07:26:56.100Z,52512
2017-05-09T07:27:50.609Z,43808
2017-05-09T07:28:45.663Z,43392
2017-05-09T07:29:40.129Z,54720
2017-05-09T07:30:39.588Z,54144
2017-05-09T07:31:33.632Z,54784
2017-05-09T07:32:27.556Z,55872
2017-05-09T07:33:16.952Z,56480
2017-05-09T07:34:11.073Z,56128
2017-05-09T07:35:10.577Z,55712
2017-05-09T07:35:59.211Z,56416
2017-05-09T07:37:05.025Z,57184
2017-05-09T07:38:00.007Z,57952
2017-05-09T07:38:54.319Z,59136
2017-05-09T07:39:53.604Z,59712
2017-05-09T07:40:41.547Z,56128
2017-05-09T07:41:30.540Z,53504
2017-05-09T07:42:24.938Z,50144
2017-05-09T07:43:19.221Z,55392
2017-05-09T07:44:13.795Z,54240
2017-05-09T07:45:08.763Z,55744
2017-05-09T07:46:08.082Z,54208
2017-05-09T07:47:07.983Z,55904
2017-05-09T07:47:55.888Z,57152
2017-05-09T07:48:49.868Z,60384
2017-05-09T07:49:43.805Z,60512
2017-05-09T07:50:39.225Z,61312
2017-05-09T07:51:27.666Z,57760
2017-05-09T07:52:21.272Z,55008
2017-05-09T07:53:16.132Z,65280
2017-05-09T07:54:04.533Z,64608
2017-05-09T07:54:58.423Z,62752
2017-05-09T07:55:47.225Z,62496
2017-05-09T07:56:46.863Z,61152
2017-05-09T07:57:40.765Z,62336
2017-05-09T07:58:28.837Z,63328
2017-05-09T07:59:22.822Z,65568
2017-05-09T08:00:16.708Z,66624
2017-05-09T08:01:05.646Z,64960
2017-05-09T08:02:00.209Z,64448
2017-05-09T08:02:48.758Z,65280
2017-05-09T08:03:37.312Z,66720
2017-05-09T08:04:36.833Z,71040
2017-05-09T08:05:25.848Z,76192
2017-05-09T08:06:14.366Z,77632
2017-05-09T08:07:13.929Z,76096
2017-05-09T08:08:01.847Z,75136
2017-05-09T08:09:01.859Z,74144
2017-05-09T08:09:50.892Z,73312
2017-05-09T08:10:38.407Z,74464
2017-05-09T08:11:21.367Z,74880
2017-05-09T08:12:15.867Z,75776
2017-05-09T08:13:10.374Z,74752
2017-05-09T08:14:10.062Z,71936
2017-05-09T08:14:59.006Z,68288
2017-05-09T08:15:52.534Z,67200
2017-05-09T08:16:41.474Z,65888
2017-05-09T08:17:29.049Z,64864
2017-05-09T08:18:17.994Z,63872
2017-05-09T08:19:17.627Z,62080
2017-05-09T08:20:05.476Z,60928
2017-05-09T08:20:59.499Z,58944
2017-05-09T08:21:54.395Z,60224
2017-05-09T08:22:48.021Z,62752
2017-05-09T08:23:42.991Z,64480
2017-05-09T08:24:42.522Z,65728
2017-05-09T08:25:37.523Z,65760
2017-05-09T08:26:31.359Z,64480
2017-05-09T08:27:25.064Z,65664
2017-05-09T08:28:14.002Z,68640
2017-05-09T08:29:08.523Z,72704
2017-05-09T08:30:03.171Z,75520
2017-05-09T08:30:51.698Z,75232
2017-05-09T08:31:40.230Z,72896
2017-05-09T08:32:33.728Z,70304
2017-05-09T08:33:27.662Z,71136
2017-05-09T08:34:21.720Z,71840
2017-05-09T08:35:10.699Z,74208
2017-05-09T08:36:05.191Z,79456
2017-05-09T08:36:58.665Z,80064
2017-05-09T08:37:53.742Z,77568
2017-05-09T08:38:48.261Z,75008
2017-05-09T08:39:41.838Z,72224
2017-05-09T08:40:35.744Z,72992
2017-05-09T08:41:29.735Z,75360
2017-05-09T08:42:23.794Z,79520
2017-05-09T08:43:11.766Z,82624
2017-05-09T08:44:11.708Z,84544
2017-05-09T08:45:00.673Z,84224
2017-05-09T08:45:54.155Z,82784
2017-05-09T08:46:43.204Z,81760
2017-05-09T08:47:31.661Z,81664
2017-05-09T08:48:24.805Z,82240
2017-05-09T08:49:13.990Z,82560
2017-05-09T08:50:01.723Z,80800
2017-05-09T08:50:50.671Z,78528
2017-05-09T08:51:44.048Z,75328
2017-05-09T08:52:44.055Z,73120
2017-05-09T08:53:38.424Z,71744
2017-05-09T08:54:31.881Z,68000
2017-05-09T08:55:15.182Z,64896
2017-05-09T08:56:03.791Z,66752
2017-05-09T08:57:03.026Z,68960
2017-05-09T08:57:51.048Z,70400
2017-05-09T08:58:44.832Z,72768
2017-05-09T08:59:34.204Z,74400
2017-05-09T09:00:28.850Z,75264
2017-05-09T09:01:22.345Z,74048
2017-05-09T09:02:10.057Z,72128
2017-05-09T09:02:59.019Z,69504
2017-05-09T09:03:52.871Z,61472
2017-05-09T09:04:41.828Z,65088
2017-05-09T09:05:35.363Z,65536
2017-05-09T09:06:30.352Z,70560
2017-05-09T09:07:23.901Z,72608
2017-05-09T09:08:11.839Z,74784
2017-05-09T09:08:59.890Z,76576
2017-05-09T09:09:54.073Z,76896
2017-05-09T09:10:47.754Z,77120
2017-05-09T09:11:36.307Z,76288
2017-05-09T09:12:24.057Z,76224
2017-05-09T09:13:13.081Z,77376
2017-05-09T09:14:01.803Z,79744
2017-05-09T09:14:50.476Z,81856
2017-05-09T09:15:38.597Z,85952
2017-05-09T09:16:33.323Z,82816
2017-05-09T09:17:21.088Z,86048
2017-05-09T09:18:15.044Z,85760
2017-05-09T09:19:09.041Z,85600
2017-05-09T09:19:56.962Z,84192
2017-05-09T09:20:45.983Z,82144
2017-05-09T09:21:39.572Z,77216
2017-05-09T09:22:33.463Z,75232
2017-05-09T09:23:27.461Z,70784
2017-05-09T09:24:16.404Z,68192
2017-05-09T09:25:10.973Z,68352
2017-05-09T09:26:10.530Z,63680
2017-05-09T09:26:59.543Z,70400
2017-05-09T09:27:53.060Z,69728
2017-05-09T09:28:42.049Z,72704
2017-05-09T09:29:35.554Z,72032
2017-05-09T09:30:29.567Z,72864
2017-05-09T09:31:24.560Z,74656
2017-05-09T09:32:18.082Z,77472
2017-05-09T09:33:12.123Z,79840
2017-05-09T09:34:00.089Z,79168
2017-05-09T09:34:49.093Z,82432
2017-05-09T09:35:43.611Z,81824
2017-05-09T09:36:32.102Z,79680
2017-05-09T09:37:26.717Z,76160
2017-05-09T09:38:15.242Z,75872
2017-05-09T09:39:08.794Z,76992
2017-05-09T09:40:03.806Z,79328
2017-05-09T09:40:57.277Z,79872
2017-05-09T09:41:51.272Z,85856
2017-05-09T09:42:45.301Z,85760
2017-05-09T09:43:39.254Z,82368
2017-05-09T09:44:28.374Z,80224
2017-05-09T09:45:21.821Z,77856
2017-05-09T09:46:15.746Z,77920
2017-05-09T09:47:09.768Z,82848
2017-05-09T09:48:03.676Z,86656
2017-05-09T09:48:51.991Z,90240
2017-05-09T09:49:40.735Z,91168
2017-05-09T09:50:34.227Z,85024
2017-05-09T09:51:29.224Z,80448
2017-05-09T09:52:17.789Z,78656
2017-05-09T09:53:17.311Z,86752
2017-05-09T09:54:11.293Z,90432
2017-05-09T09:55:05.266Z,14552
2017-05-09T09:55:59.286Z,90720
2017-05-09T09:56:53.277Z,88224
2017-05-09T09:57:42.220Z,86080
2017-05-09T09:58:42.814Z,86752
2017-05-09T09:59:37.367Z,88992
2017-05-09T10:00:30.848Z,90400
2017-05-09T10:01:24.826Z,92992
2017-05-09T10:02:13.873Z,97664
2017-05-09T10:03:07.420Z,100544
2017-05-09T10:03:50.400Z,100224
2017-05-09T10:04:44.914Z,18720
2017-05-09T10:05:32.495Z,19968
2017-05-09T10:06:21.399Z,92032
2017-05-09T10:07:15.008Z,91360
2017-05-09T10:08:15.009Z,88800
2017-05-09T10:09:08.939Z,92000
2017-05-09T10:10:03.875Z,89664
2017-05-09T10:10:58.495Z,96224
2017-05-09T10:11:52.060Z,96672
2017-05-09T10:12:41.031Z,96672
2017-05-09T10:13:29.583Z,97344
2017-05-09T10:14:24.125Z,95712
2017-05-09T10:15:18.639Z,87296
2017-05-09T10:16:12.211Z,89216
2017-05-09T10:17:01.239Z,92640
2017-05-09T10:17:55.720Z,95552
2017-05-09T10:18:55.281Z,100096
2017-05-09T10:19:44.277Z,102304
2017-05-09T10:20:37.806Z,97760
2017-05-09T10:21:31.820Z,96160
2017-05-09T10:22:25.782Z,93856
2017-05-09T10:23:19.740Z,85120
2017-05-09T10:24:09.113Z,26976
2017-05-09T10:25:02.324Z,26624
2017-05-09T10:25:56.282Z,26752
2017-05-09T10:26:50.257Z,28832
2017-05-09T10:27:50.203Z,31232
2017-05-09T10:28:39.192Z,97056
2017-05-09T10:29:40.148Z,93184
2017-05-09T10:30:33.321Z,112096
2017-05-09T10:31:27.314Z,40064
2017-05-09T10:32:22.285Z,40224
2017-05-09T10:33:15.809Z,116384
2017-05-09T10:34:04.741Z,99456
2017-05-09T10:34:58.662Z,90496
2017-05-09T10:35:46.334Z,110752
2017-05-09T10:36:29.253Z,101504
2017-05-09T10:37:16.764Z,38432
2017-05-09T10:38:10.793Z,36576
2017-05-09T10:39:04.764Z,39040
2017-05-09T10:39:52.785Z,40576
2017-05-09T10:40:47.781Z,36384
2017-05-09T10:41:41.332Z,35776
2017-05-09T10:42:29.195Z,35744
2017-05-09T10:43:18.050Z,54208
2017-05-09T10:44:12.702Z,47616
2017-05-09T10:45:12.362Z,33664
2017-05-09T10:46:01.253Z,31616
2017-05-09T10:46:54.812Z,32128
2017-05-09T10:47:54.574Z,34784
2017-05-09T10:48:54.772Z,34368
2017-05-09T10:49:42.790Z,36192
2017-05-09T10:50:37.653Z,33312
2017-05-09T10:51:31.959Z,30752
2017-05-09T10:52:26.695Z,28704
2017-05-09T10:53:20.100Z,28832
2017-05-09T10:54:15.150Z,28992
2017-05-09T10:55:09.878Z,28576
2017-05-09T10:56:04.448Z,29280
2017-05-09T10:56:58.932Z,29664
2017-05-09T10:57:52.346Z,31072
2017-05-09T10:58:41.031Z,32064
2017-05-09T10:59:30.041Z,33344
2017-05-09T11:00:23.632Z,33088
2017-05-09T11:01:18.309Z,33184
2017-05-09T11:02:05.598Z,32864
2017-05-09T11:02:55.032Z,33056
2017-05-09T11:03:49.386Z,33280
2017-05-09T11:04:42.688Z,33248
2017-05-09T11:05:38.024Z,35168
2017-05-09T11:06:25.492Z,39840
2017-05-09T11:07:13.417Z,40384
2017-05-09T11:08:02.364Z,45440
2017-05-09T11:08:55.765Z,45664
2017-05-09T11:09:50.654Z,44960
2017-05-09T11:10:44.176Z,86112
2017-05-09T11:11:32.583Z,97600
2017-05-09T11:12:26.447Z,98944
2017-05-09T11:13:14.384Z,91776
2017-05-09T11:14:08.487Z,89664
2017-05-09T11:15:03.418Z,84960
2017-05-09T11:15:57.106Z,87552
2017-05-09T11:16:50.691Z,92864
2017-05-09T11:17:44.981Z,94208
2017-05-09T11:18:39.060Z,89024
2017-05-09T11:19:28.029Z,91680
2017-05-09T11:20:27.525Z,99008
2017-05-09T11:21:16.541Z,98464
2017-05-09T11:22:10.079Z,100224
2017-05-09T11:22:59.030Z,71232
2017-05-09T11:23:52.582Z,85984
2017-05-09T11:24:40.633Z,76480
2017-05-09T11:25:29.505Z,97056
2017-05-09T11:26:24.098Z,70240
2017-05-09T11:27:17.644Z,93888
2017-05-09T11:28:06.614Z,79040
2017-05-09T11:29:00.180Z,81696
2017-05-09T11:29:54.169Z,99328
2017-05-09T11:30:43.144Z,104064
2017-05-09T11:31:31.681Z,101920
2017-05-09T11:32:25.626Z,100704
2017-05-09T11:33:14.226Z,57056
2017-05-09T11:34:13.775Z,69056
2017-05-09T11:35:01.740Z,58016
2017-05-09T11:35:50.723Z,37824
2017-05-09T11:36:39.239Z,37824
2017-05-09T11:37:33.004Z,38656
2017-05-09T11:38:26.740Z,40192
2017-05-09T11:39:15.773Z,38656
2017-05-09T11:40:09.207Z,37600
2017-05-09T11:41:03.292Z,37792
2017-05-09T11:41:57.211Z,40032
2017-05-09T11:42:52.546Z,39296
2017-05-09T11:43:45.788Z,37088
2017-05-09T11:44:39.778Z,34624
2017-05-09T11:45:33.831Z,35808
2017-05-09T11:46:21.485Z,36896
2017-05-09T11:47:15.715Z,38592
2017-05-09T11:48:15.474Z,42432
2017-05-09T11:49:09.601Z,43008
2017-05-09T11:50:04.370Z,105632
2017-05-09T11:50:53.139Z,98880
2017-05-09T11:51:46.452Z,38560
2017-05-09T11:52:35.203Z,37632
2017-05-09T11:53:28.817Z,36448
2017-05-09T11:54:18.214Z,35488
2017-05-09T11:55:17.597Z,35456
2017-05-09T11:56:06.610Z,35168
2017-05-09T11:57:00.816Z,34944
2017-05-09T11:57:55.651Z,34208
2017-05-09T11:58:55.017Z,32928
2017-05-09T11:59:43.978Z,33440